createdAt,value
2022-08-09T00:00:32.211Z,61.19
2022-08-09T00:01:14.481Z,61.24
2022-08-09T00:01:54.812Z,61.25
2022-08-09T00:02:28.170Z,61.23
2022-08-09T00:02:59.947Z,61.22
2022-08-09T00:04:10.960Z,61.30
2022-08-09T00:04:34.339Z,61.22
2022-08-09T00:06:18.097Z,61.25
2022-08-09T00:06:18.225Z,61.20
2022-08-09T00:06:51.488Z,61.22
2022-08-09T00:07:24.958Z,61.26
2022-08-09T00:08:01.665Z,61.31
2022-08-09T00:08:34.241Z,61.31
2022-08-09T00:09:05.995Z,61.34
2022-08-09T00:09:42.669Z,61.27
2022-08-09T00:10:20.973Z,61.32
2022-08-09T00:10:53.098Z,61.36
2022-08-09T00:11:54.989Z,61.28
2022-08-09T00:12:22.804Z,61.19
2022-08-09T00:12:54.786Z,61.20
2022-08-09T00:13:27.474Z,61.23
2022-08-09T00:13:59.327Z,61.36
2022-08-09T00:14:38.309Z,61.35
2022-08-09T00:15:14.691Z,61.41
2022-08-09T00:15:59.092Z,61.39
2022-08-09T00:16:36.680Z,61.51
2022-08-09T00:17:10.320Z,61.55
2022-08-09T00:18:09.512Z,61.53
2022-08-09T00:18:44.614Z,61.52
2022-08-09T00:19:18.598Z,61.47
2022-08-09T00:19:50.331Z,61.43
2022-08-09T00:20:23.782Z,61.42
2022-08-09T00:20:55.591Z,61.38
2022-08-09T00:21:27.427Z,61.32
2022-08-09T00:22:01.181Z,61.31
2022-08-09T00:22:36.324Z,61.29
2022-08-09T00:23:10.045Z,61.36
2022-08-09T00:24:00.184Z,61.32
2022-08-09T00:24:32.769Z,61.42
2022-08-09T00:25:10.004Z,61.48
2022-08-09T00:25:44.373Z,61.36
2022-08-09T00:26:29.918Z,61.39
2022-08-09T00:27:04.765Z,61.43
2022-08-09T00:27:36.662Z,61.49
2022-08-09T00:28:15.146Z,61.47
2022-08-09T00:28:52.833Z,61.43
2022-08-09T00:29:39.860Z,61.40
2022-08-09T00:30:26.066Z,61.33
2022-08-09T00:30:58.761Z,61.25
2022-08-09T00:31:59.431Z,61.15
2022-08-09T00:32:25.431Z,61.06
2022-08-09T00:32:59.781Z,61.04
2022-08-09T00:33:32.617Z,60.99
2022-08-09T00:34:20.800Z,61.00
2022-08-09T00:34:52.964Z,61.02
2022-08-09T00:35:25.475Z,60.98
2022-08-09T00:36:02.506Z,60.96
2022-08-09T00:36:34.385Z,60.96
2022-08-09T00:37:06.835Z,60.93
2022-08-09T00:37:39.188Z,60.92
2022-08-09T00:38:12.455Z,60.86
2022-08-09T00:38:45.008Z,60.84
2022-08-09T00:40:09.707Z,60.80
2022-08-09T00:40:16.782Z,60.77
2022-08-09T00:40:52.666Z,60.80
2022-08-09T00:44:10.888Z,60.92
2022-08-09T00:44:11.020Z,60.88
2022-08-09T00:44:13.637Z,60.83
2022-08-09T00:44:15.308Z,60.87
2022-08-09T00:44:54.048Z,60.73
2022-08-09T00:45:26.093Z,60.68
2022-08-09T00:45:57.896Z,60.75
2022-08-09T00:46:55.677Z,60.77
2022-08-09T00:47:24.719Z,60.85
2022-08-09T00:47:57.345Z,60.82
2022-08-09T00:48:29.130Z,60.91
2022-08-09T00:49:00.945Z,61.02
2022-08-09T00:49:34.377Z,61.04
2022-08-09T00:50:07.365Z,61.07
2022-08-09T00:50:46.764Z,61.25
2022-08-09T00:51:24.637Z,61.29
2022-08-09T00:52:05.068Z,61.43
2022-08-09T00:52:37.561Z,61.51
2022-08-09T00:53:11.710Z,61.53
2022-08-09T00:53:46.432Z,61.60
2022-08-09T00:54:18.426Z,61.54
2022-08-09T00:54:53.042Z,61.56
2022-08-09T00:56:03.767Z,61.57
2022-08-09T00:56:17.225Z,61.53
2022-08-09T00:56:49.003Z,61.54
2022-08-09T00:57:33.931Z,61.55
2022-08-09T00:58:06.132Z,61.57
2022-08-09T00:58:41.207Z,61.57
2022-08-09T00:59:40.434Z,61.55
2022-08-09T01:00:21.207Z,61.58
2022-08-09T01:00:55.978Z,61.56
2022-08-09T01:01:44.569Z,61.68
2022-08-09T01:02:26.821Z,61.71
2022-08-09T01:03:17.349Z,61.74
2022-08-09T01:04:22.171Z,61.78
2022-08-09T01:05:04.854Z,61.80
2022-08-09T01:06:17.942Z,61.91
2022-08-09T01:06:57.761Z,61.94
2022-08-09T01:08:01.068Z,62.01
2022-08-09T01:08:49.762Z,62.02
2022-08-09T01:09:47.961Z,62.02
2022-08-09T01:10:59.959Z,62.05
2022-08-09T01:11:35.692Z,62.07
2022-08-09T01:12:19.672Z,62.07
2022-08-09T01:13:22.158Z,62.05
2022-08-09T01:14:10.006Z,61.97
2022-08-09T01:15:06.056Z,62.01
2022-08-09T01:15:52.915Z,62.05
2022-08-09T01:16:31.566Z,62.08
2022-08-09T01:17:10.959Z,62.04
2022-08-09T01:17:51.990Z,61.99
2022-08-09T01:18:32.088Z,61.98
2022-08-09T01:19:42.621Z,62.05
2022-08-09T01:20:28.684Z,62.00
2022-08-09T01:21:44.500Z,62.01
2022-08-09T01:22:39.033Z,62.05
2022-08-09T01:24:01.023Z,62.04
2022-08-09T01:24:30.969Z,61.97
2022-08-09T01:25:33.310Z,61.99
2022-08-09T01:26:46.694Z,62.06
2022-08-09T01:27:26.888Z,62.09
2022-08-09T01:28:02.990Z,62.28
2022-08-09T01:28:41.465Z,62.28
2022-08-09T01:29:19.195Z,62.32
2022-08-09T01:29:55.083Z,62.39
2022-08-09T01:30:51.319Z,62.46
2022-08-09T01:32:29.459Z,62.36
2022-08-09T01:32:30.873Z,62.36
2022-08-09T01:33:09.902Z,62.36
2022-08-09T01:33:46.500Z,62.42
2022-08-09T01:34:21.089Z,62.36
2022-08-09T01:34:54.774Z,62.39
2022-08-09T01:35:38.235Z,62.44
2022-08-09T01:36:19.003Z,62.47
2022-08-09T01:36:54.438Z,62.37
2022-08-09T01:37:42.872Z,62.44
2022-08-09T01:38:25.567Z,62.45
2022-08-09T01:38:59.312Z,62.38
2022-08-09T01:39:35.795Z,62.36
2022-08-09T01:40:10.261Z,62.32
2022-08-09T01:41:10.018Z,62.16
2022-08-09T01:41:53.539Z,62.09
2022-08-09T01:42:34.752Z,62.08
2022-08-09T01:43:08.134Z,62.09
2022-08-09T01:43:51.505Z,62.11
2022-08-09T01:44:27.098Z,62.04
2022-08-09T01:45:00.440Z,62.05
2022-08-09T01:45:34.029Z,62.00
2022-08-09T01:46:09.446Z,61.97
2022-08-09T01:46:47.129Z,61.92
2022-08-09T01:47:21.028Z,61.90
2022-08-09T01:47:56.726Z,61.87
2022-08-09T01:48:31.516Z,61.86
2022-08-09T01:49:09.501Z,61.92
2022-08-09T01:49:50.882Z,61.83
2022-08-09T01:50:36.437Z,61.85
2022-08-09T01:51:09.965Z,61.86
2022-08-09T01:51:53.742Z,62.05
2022-08-09T01:52:27.310Z,61.99
2022-08-09T01:53:02.498Z,62.10
2022-08-09T01:53:58.004Z,62.21
2022-08-09T01:54:33.255Z,62.22
2022-08-09T01:55:06.545Z,62.24
2022-08-09T01:55:41.605Z,62.25
2022-08-09T01:56:17.614Z,62.28
2022-08-09T01:56:52.184Z,62.39
2022-08-09T01:57:29.060Z,62.48
2022-08-09T01:58:03.173Z,62.43
2022-08-09T01:58:37.310Z,62.49
2022-08-09T01:59:16.135Z,62.59
2022-08-09T01:59:53.102Z,62.63
2022-08-09T02:00:35.525Z,62.71
2022-08-09T02:01:09.916Z,62.78
2022-08-09T02:01:58.047Z,62.79
2022-08-09T02:02:36.479Z,62.86
2022-08-09T02:03:13.816Z,62.78
2022-08-09T02:03:46.880Z,62.86
2022-08-09T02:04:21.826Z,62.86
2022-08-09T02:04:56.308Z,62.81
2022-08-09T02:05:37.871Z,62.71
2022-08-09T02:06:17.761Z,62.73
2022-08-09T02:07:18.186Z,62.76
2022-08-09T02:08:40.801Z,62.66
2022-08-09T02:08:59.742Z,62.64
2022-08-09T02:09:42.038Z,62.64
2022-08-09T02:10:29.900Z,62.66
2022-08-09T02:11:03.528Z,62.59
2022-08-09T02:11:49.311Z,62.56
2022-08-09T02:12:23.220Z,62.67
2022-08-09T02:12:57.141Z,62.70
2022-08-09T02:13:37.477Z,62.72
2022-08-09T02:14:25.439Z,62.80
2022-08-09T02:15:00.530Z,62.87
2022-08-09T02:15:50.409Z,62.89
2022-08-09T02:16:30.932Z,62.86
2022-08-09T02:17:15.456Z,62.94
2022-08-09T02:18:10.570Z,62.93
2022-08-09T02:18:47.739Z,63.01
2022-08-09T02:19:21.302Z,63.16
2022-08-09T02:19:53.235Z,63.30
2022-08-09T02:20:32.876Z,63.37
2022-08-09T02:21:08.794Z,63.40
2022-08-09T02:21:46.900Z,63.43
2022-08-09T02:22:37.854Z,63.48
2022-08-09T02:23:43.177Z,63.58
2022-08-09T02:24:25.881Z,63.62
2022-08-09T02:25:02.693Z,63.60
2022-08-09T02:25:42.357Z,63.74
2022-08-09T02:26:27.185Z,63.67
2022-08-09T02:27:03.806Z,63.68
2022-08-09T02:27:57.343Z,63.63
2022-08-09T02:28:38.717Z,63.63
2022-08-09T02:29:23.994Z,63.56
2022-08-09T02:29:58.314Z,63.58
2022-08-09T02:30:42.824Z,63.52
2022-08-09T02:31:27.516Z,63.55
2022-08-09T02:32:07.159Z,63.59
2022-08-09T02:32:44.401Z,63.61
2022-08-09T02:33:37.946Z,63.56
2022-08-09T02:34:40.903Z,63.52
2022-08-09T02:35:17.864Z,63.48
2022-08-09T02:36:02.664Z,63.58
2022-08-09T02:36:42.052Z,63.52
2022-08-09T02:37:16.865Z,63.65
2022-08-09T02:37:52.662Z,63.63
2022-08-09T02:38:32.320Z,63.71
2022-08-09T02:39:14.578Z,63.70
2022-08-09T02:40:03.508Z,63.75
2022-08-09T02:40:38.576Z,63.73
2022-08-09T02:41:14.394Z,63.84
2022-08-09T02:42:08.330Z,63.87
2022-08-09T02:42:42.893Z,63.89
2022-08-09T02:43:17.029Z,63.91
2022-08-09T02:43:58.686Z,63.93
2022-08-09T02:44:37.902Z,63.91
2022-08-09T02:45:32.737Z,63.94
2022-08-09T02:46:08.571Z,63.95
2022-08-09T02:46:43.217Z,63.88
2022-08-09T02:47:19.636Z,63.89
2022-08-09T02:47:58.838Z,63.93
2022-08-09T02:48:34.492Z,63.94
2022-08-09T02:49:10.593Z,63.99
2022-08-09T02:50:01.255Z,63.96
2022-08-09T02:50:42.855Z,64.01
2022-08-09T02:51:19.925Z,63.91
2022-08-09T02:51:57.014Z,64.02
2022-08-09T02:52:49.500Z,64.02
2022-08-09T02:53:39.437Z,64.03
2022-08-09T02:54:16.471Z,64.11
2022-08-09T02:54:54.578Z,64.16
2022-08-09T02:55:46.528Z,64.23
2022-08-09T02:56:25.078Z,64.19
2022-08-09T02:57:13.548Z,64.32
2022-08-09T02:58:00.561Z,64.35
2022-08-09T02:58:41.865Z,64.38
2022-08-09T02:59:25.935Z,64.49
2022-08-09T03:00:20.933Z,64.44
2022-08-09T03:00:59.601Z,64.43
2022-08-09T03:02:05.541Z,64.55
2022-08-09T03:02:30.895Z,64.48
2022-08-09T03:03:06.733Z,64.48
2022-08-09T03:04:17.981Z,64.47
2022-08-09T03:04:37.014Z,64.48
2022-08-09T03:05:16.688Z,64.42
2022-08-09T03:05:51.305Z,64.50
2022-08-09T03:06:29.017Z,64.47
2022-08-09T03:07:12.386Z,64.45
2022-08-09T03:07:55.216Z,64.47
2022-08-09T03:08:29.002Z,64.54
2022-08-09T03:09:04.381Z,64.52
2022-08-09T03:09:42.871Z,64.60
2022-08-09T03:10:16.062Z,64.60
2022-08-09T03:10:50.809Z,64.69
2022-08-09T03:12:04.529Z,64.63
2022-08-09T03:12:18.363Z,64.76
2022-08-09T03:12:52.819Z,64.76
2022-08-09T03:13:26.465Z,64.83
2022-08-09T03:14:19.557Z,64.81
2022-08-09T03:14:54.980Z,64.89
2022-08-09T03:16:04.257Z,64.92
2022-08-09T03:16:19.659Z,64.86
2022-08-09T03:16:53.399Z,64.88
2022-08-09T03:17:27.533Z,64.86
2022-08-09T03:18:02.112Z,64.80
2022-08-09T03:18:43.045Z,64.75
2022-08-09T03:19:59.278Z,64.78
2022-08-09T03:20:13.705Z,64.67
2022-08-09T03:20:48.206Z,64.66
2022-08-09T03:21:25.857Z,64.68
2022-08-09T03:21:58.541Z,64.70
2022-08-09T03:22:33.134Z,64.70
2022-08-09T03:23:24.197Z,64.69
2022-08-09T03:24:03.617Z,64.76
2022-08-09T03:24:42.717Z,64.77
2022-08-09T03:26:03.475Z,64.88
2022-08-09T03:26:20.491Z,64.83
2022-08-09T03:27:07.366Z,64.78
2022-08-09T03:27:45.457Z,64.95
2022-08-09T03:28:18.735Z,64.91
2022-08-09T03:28:55.205Z,64.93
2022-08-09T03:29:28.443Z,64.91
2022-08-09T03:30:08.480Z,64.87
2022-08-09T03:30:40.707Z,64.97
2022-08-09T03:31:21.248Z,64.91
2022-08-09T03:32:00.413Z,64.92
2022-08-09T03:32:36.840Z,64.96
2022-08-09T03:33:13.400Z,64.98
2022-08-09T03:33:53.090Z,64.91
2022-08-09T03:34:25.953Z,64.88
2022-08-09T03:35:00.209Z,64.87
2022-08-09T03:36:11.087Z,64.85
2022-08-09T03:36:27.406Z,64.81
2022-08-09T03:37:02.418Z,64.75
2022-08-09T03:37:55.471Z,64.76
2022-08-09T03:38:30.508Z,64.78
2022-08-09T03:39:04.041Z,64.70
2022-08-09T03:39:37.902Z,64.76
2022-08-09T03:40:13.042Z,64.76
2022-08-09T03:40:45.273Z,64.75
2022-08-09T03:41:18.470Z,64.85
2022-08-09T03:41:51.405Z,64.88
2022-08-09T03:42:39.427Z,64.78
2022-08-09T03:43:14.823Z,64.81
2022-08-09T03:44:03.285Z,64.79
2022-08-09T03:44:39.994Z,64.73
2022-08-09T03:45:11.830Z,64.65
2022-08-09T03:46:04.315Z,64.53
2022-08-09T03:46:36.729Z,64.51
2022-08-09T03:47:08.737Z,64.44
2022-08-09T03:47:44.153Z,64.33
2022-08-09T03:48:29.281Z,64.28
2022-08-09T03:49:08.880Z,64.15
2022-08-09T03:49:41.868Z,64.11
2022-08-09T03:50:32.841Z,64.02
2022-08-09T03:51:07.773Z,64.00
2022-08-09T03:52:03.840Z,63.84
2022-08-09T03:52:38.117Z,63.82
2022-08-09T03:53:11.300Z,63.86
2022-08-09T03:53:44.358Z,63.78
2022-08-09T03:54:19.110Z,63.70
2022-08-09T03:55:07.656Z,63.68
2022-08-09T03:55:42.537Z,63.65
2022-08-09T03:56:14.514Z,63.59
2022-08-09T03:56:46.825Z,63.56
2022-08-09T03:57:20.793Z,63.50
2022-08-09T03:58:06.652Z,63.41
2022-08-09T03:58:46.024Z,63.37
2022-08-09T03:59:27.228Z,63.39
2022-08-09T04:00:00.572Z,63.41
2022-08-09T04:00:33.884Z,63.49
2022-08-09T04:01:06.439Z,63.50
2022-08-09T04:01:40.814Z,63.55
2022-08-09T04:02:14.210Z,63.56
2022-08-09T04:02:48.006Z,63.61
2022-08-09T04:03:45.778Z,63.71
2022-08-09T04:04:18.719Z,63.73
2022-08-09T04:04:51.079Z,63.75
2022-08-09T04:05:27.648Z,63.83
2022-08-09T04:06:00.213Z,63.81
2022-08-09T04:06:37.020Z,63.81
2022-08-09T04:07:09.796Z,63.85
2022-08-09T04:07:53.214Z,63.84
2022-08-09T04:08:29.732Z,63.86
2022-08-09T04:09:03.428Z,63.94
2022-08-09T04:09:52.913Z,63.96
2022-08-09T04:10:29.635Z,63.97
2022-08-09T04:11:02.229Z,64.12
2022-08-09T04:11:59.262Z,64.11
2022-08-09T04:12:49.914Z,64.16
2022-08-09T04:13:26.420Z,64.15
2022-08-09T04:14:53.254Z,64.22
2022-08-09T04:15:11.386Z,64.31
2022-08-09T04:16:18.781Z,64.38
2022-08-09T04:16:41.015Z,64.51
2022-08-09T04:17:14.175Z,64.60
2022-08-09T04:17:47.626Z,64.62
2022-08-09T04:18:21.528Z,64.62
2022-08-09T04:18:53.865Z,64.62
2022-08-09T04:19:30.069Z,64.63
2022-08-09T04:20:16.111Z,64.67
2022-08-09T04:20:48.227Z,64.66
2022-08-09T04:21:20.277Z,64.59
2022-08-09T04:21:54.117Z,64.61
2022-08-09T04:22:28.018Z,64.63
2022-08-09T04:22:59.941Z,64.64
2022-08-09T04:23:31.842Z,64.58
2022-08-09T04:24:06.345Z,64.59
2022-08-09T04:24:38.015Z,64.44
2022-08-09T04:25:13.247Z,64.41
2022-08-09T04:25:52.242Z,64.42
2022-08-09T04:26:25.215Z,64.33
2022-08-09T04:27:09.795Z,64.33
2022-08-09T04:27:42.764Z,64.35
2022-08-09T04:28:34.079Z,64.32
2022-08-09T04:29:13.362Z,64.31
2022-08-09T04:29:49.954Z,64.18
2022-08-09T04:30:23.421Z,64.18
2022-08-09T04:30:58.101Z,63.98
2022-08-09T04:31:37.540Z,63.89
2022-08-09T04:32:31.245Z,63.73
2022-08-09T04:33:05.948Z,63.66
2022-08-09T04:33:52.865Z,63.51
2022-08-09T04:34:30.802Z,63.39
2022-08-09T04:35:06.189Z,63.17
2022-08-09T04:35:42.337Z,63.00
2022-08-09T04:36:14.266Z,62.90
2022-08-09T04:36:51.272Z,62.70
2022-08-09T04:37:24.664Z,62.57
2022-08-09T04:38:16.559Z,62.54
2022-08-09T04:38:50.423Z,62.43
2022-08-09T04:39:22.320Z,62.28
2022-08-09T04:39:55.245Z,62.18
2022-08-09T04:40:46.997Z,62.15
2022-08-09T04:41:19.062Z,62.12
2022-08-09T04:41:55.485Z,62.08
2022-08-09T04:42:32.527Z,61.98
2022-08-09T04:43:07.371Z,61.90
2022-08-09T04:43:39.119Z,61.79
2022-08-09T04:44:26.532Z,61.76
2022-08-09T04:45:00.547Z,61.73
2022-08-09T04:45:36.214Z,61.66
2022-08-09T04:46:37.781Z,61.62
2022-08-09T04:47:16.398Z,61.63
2022-08-09T04:47:59.355Z,61.56
2022-08-09T04:48:35.947Z,61.51
2022-08-09T04:49:09.952Z,61.51
2022-08-09T04:49:54.167Z,61.44
2022-08-09T04:50:31.727Z,61.36
2022-08-09T04:51:07.043Z,61.34
2022-08-09T04:51:38.801Z,61.18
2022-08-09T04:52:10.880Z,61.25
2022-08-09T04:52:43.203Z,61.19
2022-08-09T04:53:16.203Z,61.17
2022-08-09T04:53:51.185Z,61.21
2022-08-09T04:54:25.747Z,61.16
2022-08-09T04:55:00.539Z,61.00
2022-08-09T04:55:39.054Z,60.94
2022-08-09T04:56:26.253Z,61.00
2022-08-09T04:56:58.890Z,60.91
2022-08-09T04:57:59.464Z,60.81
2022-08-09T04:58:22.453Z,60.77
2022-08-09T04:58:54.223Z,60.68
2022-08-09T04:59:27.411Z,60.66
2022-08-09T05:00:05.062Z,60.64
2022-08-09T05:00:37.052Z,60.62
2022-08-09T05:01:16.372Z,60.71
2022-08-09T05:01:50.771Z,60.77
2022-08-09T05:02:27.501Z,60.84
2022-08-09T05:03:01.134Z,60.82
2022-08-09T05:03:58.513Z,60.85
2022-08-09T05:04:31.341Z,60.89
2022-08-09T05:05:09.867Z,60.89
2022-08-09T05:05:52.727Z,60.90
2022-08-09T05:06:35.935Z,60.86
2022-08-09T05:07:08.061Z,60.88
2022-08-09T05:07:50.994Z,60.83
2022-08-09T05:08:25.575Z,60.78
2022-08-09T05:09:01.345Z,60.78
2022-08-09T05:09:49.479Z,60.77
2022-08-09T05:10:22.550Z,60.74
2022-08-09T05:10:55.463Z,60.79
2022-08-09T05:11:32.412Z,60.77
2022-08-09T05:12:07.792Z,60.67
2022-08-09T05:12:41.355Z,60.74
2022-08-09T05:13:13.303Z,60.72
2022-08-09T05:13:46.884Z,60.75
2022-08-09T05:14:20.548Z,60.71
2022-08-09T05:14:58.856Z,60.70
2022-08-09T05:15:39.124Z,60.67
2022-08-09T05:16:15.460Z,60.67
2022-08-09T05:16:59.163Z,60.63
2022-08-09T05:18:37.905Z,60.64
2022-08-09T05:18:38.647Z,60.56
2022-08-09T05:19:24.430Z,60.49
2022-08-09T05:19:58.451Z,60.51
2022-08-09T05:20:30.684Z,60.43
2022-08-09T05:21:09.736Z,60.39
2022-08-09T05:21:47.253Z,60.32
2022-08-09T05:22:35.005Z,60.33
2022-08-09T05:23:58.303Z,60.31
2022-08-09T05:24:11.171Z,60.28
2022-08-09T05:24:43.146Z,60.25
2022-08-09T05:25:20.534Z,60.20
2022-08-09T05:25:52.887Z,60.20
2022-08-09T05:26:32.213Z,60.23
2022-08-09T05:27:09.352Z,60.17
2022-08-09T05:27:48.078Z,60.17
2022-08-09T05:28:20.652Z,60.19
2022-08-09T05:28:52.584Z,60.08
2022-08-09T05:29:31.603Z,60.11
2022-08-09T05:30:08.856Z,60.09
2022-08-09T05:30:41.880Z,60.08
2022-08-09T05:31:37.080Z,60.12
2022-08-09T05:32:11.450Z,60.15
2022-08-09T05:32:44.500Z,60.20
2022-08-09T05:33:16.472Z,60.06
2022-08-09T05:33:48.271Z,59.97
2022-08-09T05:34:20.359Z,59.94
2022-08-09T05:34:52.134Z,59.90
2022-08-09T05:35:24.060Z,59.91
2022-08-09T05:35:57.069Z,59.94
2022-08-09T05:36:29.190Z,59.80
2022-08-09T05:37:06.365Z,59.81
2022-08-09T05:37:47.773Z,59.65
2022-08-09T05:38:21.812Z,59.74
2022-08-09T05:38:54.342Z,59.66
2022-08-09T05:39:29.086Z,59.68
2022-08-09T05:40:01.785Z,59.67
2022-08-09T05:40:33.849Z,59.65
2022-08-09T05:41:05.954Z,59.62
2022-08-09T05:41:44.616Z,59.55
2022-08-09T05:42:18.043Z,59.51
2022-08-09T05:42:55.233Z,59.45
2022-08-09T05:43:29.147Z,59.44
2022-08-09T05:44:04.231Z,59.39
2022-08-09T05:44:37.341Z,59.31
2022-08-09T05:45:14.646Z,59.26
2022-08-09T05:45:55.899Z,59.28
2022-08-09T05:46:29.219Z,59.36
2022-08-09T05:47:01.440Z,59.32
2022-08-09T05:47:40.869Z,59.32
2022-08-09T05:48:32.802Z,59.28
2022-08-09T05:49:07.471Z,59.25
2022-08-09T05:50:35.076Z,59.24
2022-08-09T05:50:57.041Z,59.31
2022-08-09T05:51:45.918Z,59.40
2022-08-09T05:52:19.528Z,59.42
2022-08-09T05:52:54.119Z,59.44
2022-08-09T05:53:31.776Z,59.42
2022-08-09T05:54:05.601Z,59.50
2022-08-09T05:54:38.354Z,59.49
2022-08-09T05:55:20.385Z,59.53
2022-08-09T05:55:53.484Z,59.54
2022-08-09T05:56:27.848Z,59.49
2022-08-09T05:56:59.590Z,59.46
2022-08-09T05:57:50.663Z,59.41
2022-08-09T05:58:23.075Z,59.39
2022-08-09T05:58:59.579Z,59.41
2022-08-09T05:59:31.425Z,59.45
2022-08-09T06:00:07.524Z,59.44
2022-08-09T06:00:39.636Z,59.40
2022-08-09T06:01:15.967Z,59.36
2022-08-09T06:01:48.906Z,59.30
2022-08-09T06:02:22.075Z,59.24
2022-08-09T06:02:56.985Z,59.23
2022-08-09T06:03:44.251Z,59.21
2022-08-09T06:04:23.420Z,59.26
2022-08-09T06:04:55.825Z,59.32
2022-08-09T06:05:54.609Z,59.32
2022-08-09T06:06:25.975Z,59.32
2022-08-09T06:06:58.232Z,59.33
2022-08-09T06:07:30.253Z,59.40
2022-08-09T06:08:05.287Z,59.39
2022-08-09T06:08:39.839Z,59.37
2022-08-09T06:09:23.174Z,59.40
2022-08-09T06:10:04.366Z,59.41
2022-08-09T06:10:39.163Z,59.38
2022-08-09T06:11:17.476Z,59.35
2022-08-09T06:11:56.920Z,59.33
2022-08-09T06:12:30.487Z,59.29
2022-08-09T06:13:11.707Z,59.39
2022-08-09T06:13:44.948Z,59.23
2022-08-09T06:14:19.370Z,59.21
2022-08-09T06:14:51.177Z,59.18
2022-08-09T06:15:23.148Z,59.14
2022-08-09T06:15:58.495Z,59.13
2022-08-09T06:16:33.640Z,59.11
2022-08-09T06:17:09.462Z,59.05
2022-08-09T06:17:42.220Z,59.06
2022-08-09T06:18:24.778Z,59.09
2022-08-09T06:18:57.527Z,59.09
2022-08-09T06:19:30.009Z,59.10
2022-08-09T06:20:05.100Z,59.09
2022-08-09T06:20:38.732Z,59.06
2022-08-09T06:21:11.083Z,58.98
2022-08-09T06:21:50.543Z,59.00
2022-08-09T06:22:30.479Z,58.81
2022-08-09T06:23:02.420Z,58.69
2022-08-09T06:23:58.171Z,58.72
2022-08-09T06:24:27.139Z,58.65
2022-08-09T06:24:58.860Z,58.63
2022-08-09T06:25:31.206Z,58.50
2022-08-09T06:26:06.942Z,58.39
2022-08-09T06:26:41.677Z,58.37
2022-08-09T06:27:17.492Z,58.35
2022-08-09T06:27:51.749Z,58.33
2022-08-09T06:28:27.411Z,58.20
2022-08-09T06:29:05.185Z,58.13
2022-08-09T06:29:48.091Z,58.10
2022-08-09T06:30:29.635Z,58.13
2022-08-09T06:31:01.426Z,58.08
2022-08-09T06:31:40.618Z,58.10
2022-08-09T06:32:59.822Z,58.14
2022-08-09T06:33:39.689Z,58.08
2022-08-09T06:34:10.002Z,58.17
2022-08-09T06:34:41.939Z,58.11
2022-08-09T06:35:14.579Z,58.20
2022-08-09T06:35:56.795Z,58.15
2022-08-09T06:36:29.873Z,58.19
2022-08-09T06:37:02.032Z,58.19
2022-08-09T06:37:52.982Z,58.19
2022-08-09T06:38:31.887Z,58.22
2022-08-09T06:39:09.159Z,58.21
2022-08-09T06:39:57.665Z,58.20
2022-08-09T06:40:33.838Z,58.21
2022-08-09T06:41:18.116Z,58.34
2022-08-09T06:42:08.129Z,58.31
2022-08-09T06:42:45.196Z,58.29
2022-08-09T06:43:19.363Z,58.35
2022-08-09T06:43:53.066Z,58.34
2022-08-09T06:44:25.109Z,58.28
2022-08-09T06:44:59.201Z,58.17
2022-08-09T06:46:07.697Z,58.03
2022-08-09T06:46:40.285Z,57.83
2022-08-09T06:47:13.325Z,57.77
2022-08-09T06:47:48.217Z,57.59
2022-08-09T06:48:30.978Z,57.47
2022-08-09T06:49:03.641Z,57.39
2022-08-09T06:50:11.526Z,57.33
2022-08-09T06:50:28.045Z,57.25
2022-08-09T06:51:05.275Z,57.11
2022-08-09T06:51:40.072Z,56.99
2022-08-09T06:52:15.624Z,56.95
2022-08-09T06:52:49.048Z,56.91
2022-08-09T06:53:21.149Z,56.85
2022-08-09T06:53:53.040Z,56.89
2022-08-09T06:54:26.284Z,56.83
2022-08-09T06:54:58.270Z,56.87
2022-08-09T06:55:32.560Z,56.94
2022-08-09T06:56:05.500Z,56.93
2022-08-09T06:56:38.087Z,57.02
2022-08-09T06:57:11.613Z,57.01
2022-08-09T06:58:03.469Z,56.96
2022-08-09T07:00:46.776Z,56.99
2022-08-09T07:00:50.575Z,56.96
2022-08-09T07:00:55.528Z,56.99
2022-08-09T07:01:12.764Z,56.88
2022-08-09T07:01:54.266Z,56.76
2022-08-09T07:02:31.947Z,56.71
2022-08-09T07:03:06.156Z,56.69
2022-08-09T07:03:39.672Z,56.55
2022-08-09T07:04:26.983Z,56.50
2022-08-09T07:05:00.467Z,56.57
2022-08-09T07:06:02.543Z,56.45
2022-08-09T07:06:25.489Z,56.52
2022-08-09T07:07:01.045Z,56.51
2022-08-09T07:08:00.807Z,56.50
2022-08-09T07:08:30.536Z,56.45
2022-08-09T07:09:02.766Z,56.39
2022-08-09T07:09:54.832Z,56.33
2022-08-09T07:10:31.175Z,56.32
2022-08-09T07:11:05.185Z,56.26
2022-08-09T07:11:51.894Z,56.26
2022-08-09T07:12:38.616Z,56.20
2022-08-09T07:13:27.476Z,56.20
2022-08-09T07:14:05.516Z,56.19
2022-08-09T07:14:38.335Z,56.16
2022-08-09T07:16:34.986Z,56.05
2022-08-09T07:16:42.832Z,56.22
2022-08-09T07:16:57.920Z,56.17
2022-08-09T07:17:39.697Z,56.23
2022-08-09T07:18:22.038Z,56.21
2022-08-09T07:18:53.879Z,56.29
2022-08-09T07:19:26.100Z,56.19
2022-08-09T07:19:59.115Z,56.25
2022-08-09T07:20:31.764Z,56.20
2022-08-09T07:21:03.811Z,56.08
2022-08-09T07:21:40.897Z,56.00
2022-08-09T07:22:35.204Z,55.97
2022-08-09T07:23:18.140Z,55.91
2022-08-09T07:23:58.080Z,55.94
2022-08-09T07:24:39.899Z,55.91
2022-08-09T07:25:13.666Z,55.90
2022-08-09T07:25:52.178Z,55.87
2022-08-09T07:26:25.222Z,55.95
2022-08-09T07:26:58.932Z,55.96
2022-08-09T07:27:33.895Z,55.83
2022-08-09T07:28:06.398Z,55.80
2022-08-09T07:29:08.856Z,55.76
2022-08-09T07:29:38.113Z,55.73
2022-08-09T07:30:14.796Z,55.72
2022-08-09T07:30:47.140Z,55.71
2022-08-09T07:31:20.617Z,55.68
2022-08-09T07:31:57.174Z,55.77
2022-08-09T07:32:33.432Z,55.76
2022-08-09T07:33:10.258Z,55.77
2022-08-09T07:33:53.187Z,55.84
2022-08-09T07:34:28.009Z,55.82
2022-08-09T07:35:00.613Z,55.81
2022-08-09T07:35:34.957Z,55.88
2022-08-09T07:36:25.620Z,55.91
2022-08-09T07:36:57.615Z,55.99
2022-08-09T07:37:43.944Z,55.94
2022-08-09T07:38:16.710Z,55.94
2022-08-09T07:38:56.777Z,56.07
2022-08-09T07:39:41.379Z,56.05
2022-08-09T07:40:18.809Z,56.20
2022-08-09T07:41:10.013Z,56.24
2022-08-09T07:41:44.944Z,56.21
2022-08-09T07:42:17.244Z,56.35
2022-08-09T07:43:00.176Z,56.39
2022-08-09T07:43:32.268Z,56.53
2022-08-09T07:44:13.843Z,56.47
2022-08-09T07:44:51.640Z,56.59
2022-08-09T07:45:40.002Z,56.60
2022-08-09T07:46:12.635Z,56.60
2022-08-09T07:46:51.160Z,56.65
2022-08-09T07:47:24.231Z,56.79
2022-08-09T07:48:01.385Z,56.63
2022-08-09T07:48:39.236Z,56.47
2022-08-09T07:49:15.502Z,56.48
2022-08-09T07:50:04.278Z,56.42
2022-08-09T07:50:40.267Z,56.45
2022-08-09T07:52:05.316Z,56.45
2022-08-09T07:52:17.212Z,56.40
2022-08-09T07:52:50.276Z,56.47
2022-08-09T07:53:45.079Z,56.43
2022-08-09T07:54:19.251Z,56.47
2022-08-09T07:55:00.812Z,56.37
2022-08-09T07:55:41.275Z,56.27
2022-08-09T07:56:28.281Z,56.26
2022-08-09T07:57:03.274Z,56.31
2022-08-09T07:57:47.671Z,56.20
2022-08-09T07:58:21.538Z,56.35
2022-08-09T07:58:59.333Z,56.21
2022-08-09T07:59:34.234Z,56.26
2022-08-09T08:00:20.493Z,56.19
2022-08-09T08:01:11.304Z,56.14
2022-08-09T08:01:43.567Z,56.23
2022-08-09T08:02:25.803Z,56.27
2022-08-09T08:03:00.782Z,56.24
2022-08-09T08:03:36.732Z,56.20
2022-08-09T08:04:10.434Z,56.16
2022-08-09T08:04:42.750Z,56.05
2022-08-09T08:05:20.969Z,55.98
2022-08-09T08:05:57.945Z,55.96
2022-08-09T08:06:31.787Z,55.99
2022-08-09T08:07:21.558Z,55.89
2022-08-09T08:08:43.694Z,55.90
2022-08-09T08:09:00.913Z,55.93
2022-08-09T08:09:42.963Z,55.92
2022-08-09T08:10:27.268Z,56.04
2022-08-09T08:11:15.361Z,56.06
2022-08-09T08:12:24.002Z,56.07
2022-08-09T08:12:45.115Z,56.17
2022-08-09T08:13:18.784Z,56.18
2022-08-09T08:13:56.863Z,56.17
2022-08-09T08:14:29.591Z,56.22
2022-08-09T08:15:02.324Z,56.31
2022-08-09T08:15:37.505Z,56.42
2022-08-09T08:16:31.422Z,56.45
2022-08-09T08:17:08.871Z,56.48
2022-08-09T08:17:53.476Z,56.40
2022-08-09T08:18:27.635Z,56.29
2022-08-09T08:19:02.778Z,56.44
2022-08-09T08:19:35.566Z,56.38
2022-08-09T08:20:12.929Z,56.35
2022-08-09T08:20:45.408Z,56.34
2022-08-09T08:21:17.703Z,56.31
2022-08-09T08:21:52.704Z,56.24
2022-08-09T08:22:25.774Z,56.38
2022-08-09T08:23:06.975Z,56.33
2022-08-09T08:23:55.873Z,56.34
2022-08-09T08:24:35.140Z,56.33
2022-08-09T08:25:14.770Z,56.40
2022-08-09T08:25:50.298Z,56.32
2022-08-09T08:26:42.066Z,56.37
2022-08-09T08:27:18.716Z,56.20